Schneifelwetter: Wetterstation Hallschlag, 537 m . NN
Wetterdaten: Freitag, 16.11.2012
Datum Zeit Temp. A. Feuchte A. Luftdruck Regen Wind Richtung Richtung Sonnenschein T Regen Taupunkt Windchill
16.11.2012 00:10 0,3 C 97 % 1017 hPa 0,0 l/m 8,7 km/h (2 Bft) W-SW22.5 240 0 min 0 min -0,1 C -2,0 C
16.11.2012 00:25 0,3 C 97 % 1017 hPa 0,0 l/m 11,1 km/h (2 Bft) W-SW22.5 250 0 min 0 min -0,1 C -4,0 C
16.11.2012 00:40 0,3 C 97 % 1017 hPa 0,0 l/m 12,8 km/h (3 Bft) W-SW22.5 250 0 min 0 min -0,1 C -5,2 C
16.11.2012 00:55 0,3 C 97 % 1017 hPa 0,0 l/m 12,2 km/h (2 Bft) S45 190 0 min 0 min -0,1 C -4,8 C
16.11.2012 01:10 0,3 C 97 % 1017 hPa 0,0 l/m 12,9 km/h (3 Bft) S-SW22.5 195 0 min 0 min -0,1 C -5,3 C
16.11.2012 01:25 0,2 C 97 % 1017 hPa 0,0 l/m 11,2 km/h (2 Bft) S-SO22.5 165 0 min 0 min -0,2 C -4,2 C
16.11.2012 01:40 0,3 C 97 % 1017 hPa 0,0 l/m 14,2 km/h (3 Bft) W-SW22.5 245 0 min 0 min -0,1 C -6,1 C
16.11.2012 01:55 0,2 C 97 % 1016 hPa 0,0 l/m 12,2 km/h (2 Bft) SW45 225 0 min 0 min -0,2 C -4,9 C
16.11.2012 02:10 0,2 C 97 % 1017 hPa 0,0 l/m 7,0 km/h (2 Bft) S-SO 160 0 min 0 min -0,2 C -0,4 C
16.11.2012 02:25 0,2 C 97 % 1017 hPa 0,0 l/m 9,2 km/h (2 Bft) S22.5 170 0 min 0 min -0,2 C -2,5 C
16.11.2012 02:40 0,2 C 97 % 1017 hPa 0,0 l/m 12,5 km/h (3 Bft) S22.5 180 0 min 0 min -0,2 C -5,1 C
16.11.2012 02:55 0,1 C 97 % 1016 hPa 0,0 l/m 7,0 km/h (2 Bft) S45 180 0 min 0 min -0,3 C -0,5 C
16.11.2012 03:09 0,2 C 97 % 1016 hPa 0,0 l/m 5,9 km/h (2 Bft) S-SO 165 0 min 0 min -0,2 C 0,2 C
16.11.2012 03:24 0,2 C 97 % 1016 hPa 0,0 l/m 9,7 km/h (2 Bft) SW45 225 0 min 0 min -0,2 C -3,0 C
16.11.2012 03:39 0,1 C 97 % 1016 hPa 0,0 l/m 9,7 km/h (2 Bft) W-SW22.5 250 0 min 0 min -0,3 C -3,1 C
16.11.2012 03:54 0,1 C 97 % 1016 hPa 0,0 l/m 11,5 km/h (2 Bft) W-SW22.5 245 0 min 0 min -0,3 C -4,5 C
16.11.2012 04:09 0,1 C 98 % 1016 hPa 0,0 l/m 5,1 km/h (1 Bft) S-SW45 205 0 min 0 min -0,2 C 0,1 C
16.11.2012 04:24 0,1 C 97 % 1016 hPa 0,0 l/m 6,5 km/h (2 Bft) S22.5 190 0 min 0 min -0,3 C 0,0 C
16.11.2012 04:39 0,0 C 97 % 1016 hPa 0,0 l/m 10,5 km/h (2 Bft) SW22.5 230 0 min 0 min -0,4 C -3,9 C
16.11.2012 04:54 -0,2 C 97 % 1016 hPa 0,0 l/m 14,5 km/h (3 Bft) W-SW45 240 0 min 0 min -0,6 C -6,9 C
16.11.2012 05:09 -0,2 C 98 % 1016 hPa 0,0 l/m 7,9 km/h (2 Bft) S22.5 185 0 min 0 min -0,5 C -1,8 C
16.11.2012 05:24 -0,3 C 98 % 1016 hPa 0,0 l/m 7,1 km/h (2 Bft) S-SW22.5 195 0 min 0 min -0,6 C -1,0 C
16.11.2012 05:39 -0,3 C 98 % 1016 hPa 0,0 l/m 10,8 km/h (2 Bft) W22.5 260 0 min 0 min -0,6 C -4,4 C
16.11.2012 05:54 -0,3 C 98 % 1016 hPa 0,0 l/m 10,8 km/h (2 Bft) W-SW 250 0 min 0 min -0,6 C -4,4 C
16.11.2012 06:09 -0,3 C 98 % 1016 hPa 0,0 l/m 6,5 km/h (2 Bft) SW45 230 0 min 0 min -0,6 C -0,4 C
16.11.2012 06:24 -0,4 C 98 % 1016 hPa 0,0 l/m 9,8 km/h (2 Bft) W-SW22.5 245 0 min 0 min -0,7 C -3,7 C
16.11.2012 06:39 -0,5 C 98 % 1016 hPa 0,0 l/m 13,6 km/h (3 Bft) S-SW45 205 0 min 0 min -0,8 C -6,7 C
16.11.2012 06:54 -0,6 C 98 % 1016 hPa 0,0 l/m 9,8 km/h (2 Bft) S-SW22.5 195 0 min 0 min -0,9 C -3,9 C
16.11.2012 07:09 -0,6 C 98 % 1016 hPa 0,0 l/m 13,0 km/h (3 Bft) SW45 230 0 min 0 min -0,9 C -6,4 C
16.11.2012 07:24 -0,6 C 98 % 1016 hPa 0,0 l/m 10,9 km/h (2 Bft) W-SW22.5 240 0 min 0 min -0,9 C -4,9 C
16.11.2012 07:39 -0,6 C 98 % 1016 hPa 0,0 l/m 11,5 km/h (2 Bft) SW22.5 215 0 min 0 min -0,9 C -5,3 C
16.11.2012 08:00 -0,8 C 97 % 1016 hPa 0,0 l/m 11,6 km/h (2 Bft) S-SW22.5 200 0 min 0 min -1,2 C -5,6 C
16.11.2012 08:16 -0,6 C 98 % 1016 hPa 0,0 l/m 14,9 km/h (3 Bft) W-SW22.5 250 0 min 0 min -0,9 C -7,6 C
16.11.2012 08:31 -0,6 C 98 % 1016 hPa 0,0 l/m 11,9 km/h (2 Bft) W-SW22.5 255 0 min 0 min -0,9 C -5,6 C
16.11.2012 08:45 -0,6 C 98 % 1016 hPa 0,0 l/m 10,8 km/h (2 Bft) S-SW45 195 0 min 0 min -0,9 C -4,8 C
16.11.2012 09:00 -0,4 C 98 % 1016 hPa 0,0 l/m 11,6 km/h (2 Bft) SW22.5 225 0 min 0 min -0,7 C -5,2 C
16.11.2012 09:15 -0,2 C 98 % 1016 hPa 0,0 l/m 12,4 km/h (3 Bft) W-SW22.5 250 0 min 0 min -0,5 C -5,5 C
16.11.2012 09:30 0,0 C 98 % 1016 hPa 0,0 l/m 10,9 km/h (2 Bft) SW45 230 0 min 0 min -0,3 C -4,2 C
16.11.2012 09:46 0,3 C 98 % 1016 hPa 0,0 l/m 10,1 km/h (2 Bft) W-SW 250 0 min 0 min 0,0 C -3,2 C
16.11.2012 10:01 0,6 C 98 % 1016 hPa 0,0 l/m 11,9 km/h (2 Bft) W22.5 260 0 min 0 min 0,3 C -4,2 C
16.11.2012 10:15 1,0 C 97 % 1016 hPa 0,0 l/m 11,1 km/h (2 Bft) W-SW22.5 250 0 min 0 min 0,6 C -3,2 C
16.11.2012 10:30 1,2 C 97 % 1015 hPa 0,0 l/m 9,9 km/h (2 Bft) W-SW22.5 250 0 min 0 min 0,8 C -2,0 C
16.11.2012 10:45 1,6 C 97 % 1015 hPa 0,0 l/m 8,3 km/h (2 Bft) S-SW45 195 0 min 0 min 1,2 C -0,2 C
16.11.2012 11:00 1,8 C 97 % 1016 hPa 0,0 l/m 11,2 km/h (2 Bft) SW22.5 235 0 min 0 min 1,4 C -2,4 C
16.11.2012 11:16 1,9 C 96 % 1016 hPa 0,0 l/m 10,2 km/h (2 Bft) SW22.5 235 0 min 0 min 1,3 C -1,5 C
16.11.2012 11:31 2,7 C 96 % 1015 hPa 0,0 l/m 16,5 km/h (3 Bft) W22.5 260 0 min 0 min 2,1 C -4,5 C
16.11.2012 11:45 3,1 C 96 % 1016 hPa 0,0 l/m 18,8 km/h (3 Bft) W-SW22.5 250 0 min 0 min 2,5 C -5,1 C
16.11.2012 12:00 3,6 C 95 % 1015 hPa 0,0 l/m 12,8 km/h (3 Bft) W-SW22.5 250 0 min 0 min 2,9 C -1,4 C
16.11.2012 12:15 3,9 C 94 % 1015 hPa 0,0 l/m 12,6 km/h (3 Bft) W-SW22.5 250 0 min 0 min 3,0 C -0,9 C
16.11.2012 12:30 3,9 C 94 % 1015 hPa 0,0 l/m 13,2 km/h (3 Bft) W-SW22.5 245 0 min 0 min 3,0 C -1,2 C
16.11.2012 12:46 3,9 C 93 % 1015 hPa 0,0 l/m 9,2 km/h (2 Bft) W-SW22.5 250 0 min 0 min 2,9 C 1,5 C
16.11.2012 13:00 3,9 C 93 % 1015 hPa 0,0 l/m 8,9 km/h (2 Bft) S-SO22.5 160 0 min 0 min 2,9 C 1,7 C
16.11.2012 13:15 4,2 C 93 % 1015 hPa 0,0 l/m 11,8 km/h (2 Bft) SW22.5 230 0 min 0 min 3,2 C -0,0 C
16.11.2012 13:30 4,3 C 92 % 1014 hPa 0,0 l/m 11,9 km/h (2 Bft) W-SW 250 0 min 0 min 3,1 C 0,0 C
16.11.2012 13:45 4,4 C 92 % 1015 hPa 0,0 l/m 10,5 km/h (2 Bft) W-SW22.5 250 0 min 0 min 3,2 C 1,1 C
16.11.2012 14:00 4,6 C 92 % 1014 hPa 0,0 l/m 6,1 km/h (2 Bft) SW22.5 235 0 min 0 min 3,4 C 4,6 C
16.11.2012 14:16 4,7 C 92 % 1014 hPa 0,0 l/m 10,4 km/h (2 Bft) W-SW22.5 250 0 min 0 min 3,5 C 1,5 C
16.11.2012 14:30 4,9 C 92 % 1014 hPa 0,0 l/m 7,0 km/h (2 Bft) W-SW 250 0 min 0 min 3,7 C 4,4 C
16.11.2012 14:45 4,9 C 92 % 1014 hPa 0,0 l/m 7,8 km/h (2 Bft) W-SW 250 0 min 0 min 3,7 C 3,7 C
16.11.2012 15:00 5,1 C 91 % 1014 hPa 0,0 l/m 11,6 km/h (2 Bft) W-SW 250 0 min 0 min 3,8 C 1,1 C
16.11.2012 15:15 4,8 C 91 % 1014 hPa 0,0 l/m 13,8 km/h (3 Bft) W-SW 250 0 min 0 min 3,5 C -0,5 C
16.11.2012 15:30 4,6 C 90 % 1014 hPa 0,0 l/m 16,1 km/h (3 Bft) W-SW22.5 250 0 min 0 min 3,1 C -2,0 C
16.11.2012 15:46 4,2 C 90 % 1014 hPa 0,0 l/m 13,8 km/h (3 Bft) W-SW22.5 250 0 min 0 min 2,7 C -1,2 C
16.11.2012 16:00 3,8 C 91 % 1014 hPa 0,0 l/m 10,5 km/h (2 Bft) W-SW22.5 250 0 min 0 min 2,5 C 0,4 C
16.11.2012 16:15 3,2 C 91 % 1014 hPa 0,0 l/m 7,9 km/h (2 Bft) W-SW 250 0 min 0 min 1,9 C 1,8 C
16.11.2012 16:30 2,6 C 90 % 1014 hPa 0,0 l/m 7,3 km/h (2 Bft) W-SW 245 0 min 0 min 1,1 C 1,7 C
16.11.2012 16:45 2,0 C 91 % 1014 hPa 0,0 l/m 6,5 km/h (2 Bft) W-SW 245 0 min 0 min 0,7 C 1,9 C
16.11.2012 17:01 1,2 C 91 % 1014 hPa 0,0 l/m 5,3 km/h (1 Bft) W-SW 245 0 min 0 min -0,1 C 1,2 C
16.11.2012 17:16 0,8 C 92 % 1014 hPa 0,0 l/m 0,0 km/h (0 Bft) W-SW 245 0 min 0 min -0,3 C 0,8 C
16.11.2012 17:30 0,3 C 92 % 1013 hPa 0,0 l/m 0,0 km/h (0 Bft) W-SW 245 0 min 0 min -0,8 C 0,3 C
16.11.2012 17:45 -0,3 C 92 % 1014 hPa 0,0 l/m 0,0 km/h (0 Bft) W-SW 245 0 min 0 min -1,4 C -0,3 C
16.11.2012 18:00 -0,6 C 93 % 1014 hPa 0,0 l/m 0,0 km/h (0 Bft) W-SW 245 0 min 0 min -1,6 C -0,6 C
16.11.2012 18:15 -0,9 C 93 % 1014 hPa 0,0 l/m 0,0 km/h (0 Bft) W-SW 245 0 min 0 min -1,9 C -0,9 C
16.11.2012 18:31 -1,2 C 93 % 1014 hPa 0,0 l/m 0,0 km/h (0 Bft) W-SW 245 0 min 0 min -2,2 C -1,2 C
16.11.2012 18:46 -1,4 C 93 % 1014 hPa 0,0 l/m 0,0 km/h (0 Bft) W-SW 245 0 min 0 min -2,4 C -1,4 C
16.11.2012 19:00 -1,6 C 94 % 1014 hPa 0,0 l/m 0,0 km/h (0 Bft) W-SW 245 0 min 0 min -2,4 C -1,6 C
16.11.2012 19:15 -1,6 C 94 % 1014 hPa 0,0 l/m 0,0 km/h (0 Bft) W-SW 245 0 min 0 min -2,4 C -1,6 C
16.11.2012 19:30 -1,6 C 95 % 1014 hPa 0,0 l/m 0,0 km/h (0 Bft) W-SW 245 0 min 0 min -2,3 C -1,6 C
16.11.2012 19:45 -1,6 C 95 % 1014 hPa 0,0 l/m 0,0 km/h (0 Bft) W-SW 245 0 min 0 min -2,3 C -1,6 C
16.11.2012 20:01 -1,8 C 95 % 1014 hPa 0,0 l/m 0,0 km/h (0 Bft) W-SW 245 0 min 0 min -2,5 C -1,8 C
16.11.2012 20:16 -2,0 C 95 % 1014 hPa 0,0 l/m 0,0 km/h (0 Bft) W-SW 245 0 min 0 min -2,7 C -2,0 C
16.11.2012 20:30 -1,9 C 96 % 1013 hPa 0,0 l/m 0,0 km/h (0 Bft) W-SW 245 0 min 0 min -2,5 C -1,9 C
16.11.2012 20:45 -2,0 C 95 % 1014 hPa 0,0 l/m 0,0 km/h (0 Bft) W-SW 245 0 min 0 min -2,7 C -2,0 C
16.11.2012 21:00 -2,3 C 95 % 1013 hPa 0,0 l/m 0,0 km/h (0 Bft) W-SW 245 0 min 0 min -3,0 C -2,3 C
16.11.2012 21:15 -2,4 C 95 % 1013 hPa 0,0 l/m 0,0 km/h (0 Bft) W-SW 245 0 min 0 min -3,1 C -2,4 C
16.11.2012 21:31 -2,4 C 95 % 1013 hPa 0,0 l/m 0,0 km/h (0 Bft) W-SW 245 0 min 0 min -3,1 C -2,4 C
16.11.2012 21:46 -2,4 C 95 % 1013 hPa 0,0 l/m 0,0 km/h (0 Bft) W-SW 245 0 min 0 min -3,1 C -2,4 C
16.11.2012 22:00 -2,4 C 95 % 1013 hPa 0,0 l/m 0,0 km/h (0 Bft) W-SW 245 0 min 0 min -3,1 C -2,4 C
16.11.2012 22:15 -2,5 C 96 % 1013 hPa 0,0 l/m 0,0 km/h (0 Bft) W-SW 245 0 min 0 min -3,0 C -2,5 C
16.11.2012 22:30 -2,3 C 96 % 1013 hPa 0,0 l/m 0,0 km/h (0 Bft) W-SW 245 0 min 0 min -2,8 C -2,3 C
16.11.2012 22:45 -2,4 C 96 % 1013 hPa 0,0 l/m 0,0 km/h (0 Bft) W-SW 245 0 min 0 min -2,9 C -2,4 C
16.11.2012 23:01 -2,6 C 96 % 1013 hPa 0,0 l/m 0,0 km/h (0 Bft) W-SW 245 0 min 0 min -3,1 C -2,6 C
16.11.2012 23:15 -2,2 C 97 % 1013 hPa 0,0 l/m 0,0 km/h (0 Bft) W-SW 245 0 min 0 min -2,6 C -2,2 C
16.11.2012 23:30 -2,3 C 96 % 1013 hPa 0,0 l/m 0,0 km/h (0 Bft) W-SW 245 0 min 0 min -2,8 C -2,3 C
16.11.2012 23:45 -2,3 C 96 % 1013 hPa 0,0 l/m 0,0 km/h (0 Bft) W-SW 245 0 min 0 min -2,8 C -2,3 C
_ Min-Zeit 23:01 15:30 17:30 - 17:16 - - - - 23:01 08:16
Minimum _ -2,6 C 90 % 1013 hPa - 0,0 km/h (0 Bft) - - - - -3,1 C -7,6 C
_ Max-Zeit 15:00 04:09 00:10 00:10 11:45 - - 00:10 00:10 15:00 14:00
Maximum _ 5,1 C 98 % 1017 hPa 0,0 l/m 18,8 km/h
W-SW (3 Bft)
- - 0 min 0 min 3,8 C 4,6 C
Durchschnitt _ 0,5 C 95 % 1015 hPa #0,0 l/m 7,6 km/h (2 Bft) W-SW - #0 min. #0 min. -0,2 C -2,1 C